Time;durP1;ratioP1;P1;durP2;ratioP2;P2;SDS_P1;SDS_P2;PMS_P1;PMS_P2;Temp;Humidity;BMP_temperature;BMP_pressure;BME280_temperature;BME280_humidity;BME280_pressure;Samples;Min_cycle;Max_cycle;Signal;HPM_P1;HPM_P2
2022/09/11 00:01:57;;;;;;;;;;;15.20;99.90;;;;;;4994751;28;19926;-66
2022/09/11 00:04:26;;;;;;;;;;;15.10;99.90;;;;;;5019524;28;20077;-67
2022/09/11 00:06:53;;;;;;;;;;;15.20;99.90;;;;;;5004703;28;19926;-67
2022/09/11 00:09:20;;;;;;;;;;;15.10;99.90;;;;;;5010686;28;19943;-68
2022/09/11 00:11:46;;;;;;;;;;;15.10;99.90;;;;;;5025851;28;19926;-67
2022/09/11 00:14:13;;;;;;;;;;;15.10;99.90;;;;;;5020973;28;19926;-67
2022/09/11 00:16:43;;;;;;;;;;;15.00;99.90;;;;;;5018274;28;19926;-67
2022/09/11 00:19:11;;;;;;;;;;;15.00;99.90;;;;;;4993953;28;19925;-67
2022/09/11 00:21:38;;;;;;;;;;;15.00;99.90;;;;;;5019282;28;19926;-67
2022/09/11 00:24:05;;;;;;;;;;;14.90;99.90;;;;;;5012067;28;20379;-67
2022/09/11 00:26:31;;;;;;;;;;;14.90;99.90;;;;;;5010685;28;19926;-67
2022/09/11 00:29:00;;;;;;;;;;;14.90;99.90;;;;;;4993486;28;19930;-67
2022/09/11 00:31:28;;;;;;;;;;;14.90;99.90;;;;;;5000520;28;19929;-67
2022/09/11 00:33:57;;;;;;;;;;;14.90;99.90;;;;;;4994214;28;19972;-67
2022/09/11 00:36:25;;;;;;;;;;;14.90;99.90;;;;;;4999829;28;19926;-67
2022/09/11 00:38:52;;;;;;;;;;;14.90;99.90;;;;;;5010177;28;20305;-67
2022/09/11 00:41:21;;;;;;;;;;;14.90;99.90;;;;;;4993990;28;19925;-67
2022/09/11 00:43:52;;;;;;;;;;;14.90;99.90;;;;;;4993724;28;20033;-67
2022/09/11 00:46:19;;;;;;;;;;;14.80;99.90;;;;;;4994102;28;19933;-67
2022/09/11 00:48:48;;;;;;;;;;;14.80;99.90;;;;;;4993556;28;19929;-67
2022/09/11 00:51:18;;;;;;;;;;;14.80;99.90;;;;;;4997089;28;20020;-67
2022/09/11 00:53:45;;;;;;;;;;;14.80;99.90;;;;;;5009881;28;20304;-67
2022/09/11 00:56:11;;;;;;;;;;;14.80;99.90;;;;;;5009505;28;20455;-67
2022/09/11 00:58:40;;;;;;;;;;;14.80;99.90;;;;;;5017028;28;19933;-67
2022/09/11 01:01:07;;;;;;;;;;;14.80;99.90;;;;;;5015262;28;20456;-66
2022/09/11 01:03:35;;;;;;;;;;;14.80;99.90;;;;;;4997553;28;19932;-67
2022/09/11 01:06:02;;;;;;;;;;;14.90;99.90;;;;;;5014071;28;19990;-67
2022/09/11 01:08:30;;;;;;;;;;;14.90;99.90;;;;;;5010253;28;19926;-67
2022/09/11 01:11:02;;;;;;;;;;;14.90;99.90;;;;;;4992705;28;19932;-67
2022/09/11 01:13:33;;;;;;;;;;;14.90;99.90;;;;;;4993595;28;20031;-67
2022/09/11 01:16:04;;;;;;;;;;;14.80;99.90;;;;;;4999278;28;19960;-67
2022/09/11 01:18:33;;;;;;;;;;;14.80;99.90;;;;;;5012799;28;19926;-67
2022/09/11 01:21:18;;;;;;;;;;;14.80;99.90;;;;;;4993315;28;19936;-67
2022/09/11 01:24:00;;;;;;;;;;;14.80;99.90;;;;;;5009767;28;19930;-67
2022/09/11 01:26:45;;;;;;;;;;;14.90;99.90;;;;;;4993440;28;19925;-67
2022/09/11 01:29:17;;;;;;;;;;;14.90;99.90;;;;;;4969753;28;19972;-67
2022/09/11 01:31:47;;;;;;;;;;;15.00;99.90;;;;;;5009600;28;19926;-67
2022/09/11 01:34:17;;;;;;;;;;;15.00;99.90;;;;;;5013615;28;19937;-67
2022/09/11 01:36:46;;;;;;;;;;;15.00;99.90;;;;;;5009597;28;20521;-67
2022/09/11 01:39:13;;;;;;;;;;;15.00;99.90;;;;;;4995583;28;20027;-67
2022/09/11 01:41:43;;;;;;;;;;;15.00;99.90;;;;;;4993244;28;20278;-67
2022/09/11 01:44:12;;;;;;;;;;;15.10;99.90;;;;;;5015160;28;20386;-67
2022/09/11 01:46:44;;;;;;;;;;;15.10;99.90;;;;;;5009565;28;19929;-67
2022/09/11 01:49:15;;;;;;;;;;;15.10;99.90;;;;;;5008676;28;19929;-67
2022/09/11 01:51:42;;;;;;;;;;;15.10;99.90;;;;;;5010378;28;19991;-67
2022/09/11 01:54:10;;;;;;;;;;;15.10;99.90;;;;;;4993713;28;20382;-67
2022/09/11 01:56:40;;;;;;;;;;;15.10;99.90;;;;;;4993114;28;19932;-67
2022/09/11 01:59:10;;;;;;;;;;;15.00;99.90;;;;;;4993404;28;19933;-67
2022/09/11 02:01:40;;;;;;;;;;;15.00;99.90;;;;;;5009601;28;19930;-67
2022/09/11 02:04:10;;;;;;;;;;;15.10;99.90;;;;;;4992873;28;19925;-67
2022/09/11 02:06:40;;;;;;;;;;;15.10;99.90;;;;;;5009729;28;19926;-67
2022/09/11 02:09:09;;;;;;;;;;;15.10;99.90;;;;;;4996681;28;19925;-67
2022/09/11 02:11:40;;;;;;;;;;;15.20;99.90;;;;;;4996662;28;20401;-66
2022/09/11 02:14:09;;;;;;;;;;;15.20;99.90;;;;;;4996657;28;20362;-67
2022/09/11 02:16:39;;;;;;;;;;;15.20;99.90;;;;;;5013050;28;19929;-67
2022/09/11 02:19:11;;;;;;;;;;;15.20;99.90;;;;;;4995883;28;19925;-67
2022/09/11 02:21:38;;;;;;;;;;;15.20;99.90;;;;;;5012779;28;19961;-67
2022/09/11 02:24:09;;;;;;;;;;;15.30;99.90;;;;;;4996861;28;19932;-67
2022/09/11 02:26:38;;;;;;;;;;;15.30;99.90;;;;;;4996247;28;19930;-67
2022/09/11 02:29:06;;;;;;;;;;;15.30;99.90;;;;;;5012255;28;20360;-67
2022/09/11 02:31:35;;;;;;;;;;;15.30;99.90;;;;;;4997367;28;19925;-67
2022/09/11 02:34:02;;;;;;;;;;;15.30;99.90;;;;;;5001961;28;19926;-67
2022/09/11 02:36:35;;;;;;;;;;;15.30;99.90;;;;;;5012776;28;19926;-66
2022/09/11 02:39:08;;;;;;;;;;;15.30;99.90;;;;;;4995984;28;19925;-67
2022/09/11 02:41:39;;;;;;;;;;;15.30;99.90;;;;;;4995899;28;20374;-67
2022/09/11 02:44:09;;;;;;;;;;;15.40;99.90;;;;;;4996726;28;20366;-67
2022/09/11 02:46:47;;;;;;;;;;;15.40;99.90;;;;;;5012251;28;20290;-66
2022/09/11 02:49:20;;;;;;;;;;;15.40;99.90;;;;;;4995629;28;20389;-66
2022/09/11 02:51:51;;;;;;;;;;;15.40;99.90;;;;;;5001199;28;19965;-67
2022/09/11 02:54:21;;;;;;;;;;;15.40;99.90;;;;;;4996243;28;19926;-66
2022/09/11 02:56:52;;;;;;;;;;;15.40;99.90;;;;;;4995999;28;20341;-66
2022/09/11 02:59:23;;;;;;;;;;;15.40;99.90;;;;;;5011618;28;19925;-67
2022/09/11 03:01:52;;;;;;;;;;;15.40;99.90;;;;;;5011967;28;20044;-67
2022/09/11 03:04:23;;;;;;;;;;;15.40;99.90;;;;;;5012488;28;19979;-67
2022/09/11 03:06:52;;;;;;;;;;;15.40;99.90;;;;;;5011792;28;19925;-67
2022/09/11 03:09:19;;;;;;;;;;;15.40;99.90;;;;;;4995355;28;19925;-66
2022/09/11 03:11:50;;;;;;;;;;;15.40;99.90;;;;;;5011977;28;20028;-66
2022/09/11 03:14:16;;;;;;;;;;;15.40;99.90;;;;;;5011902;28;19925;-67
2022/09/11 03:16:44;;;;;;;;;;;15.40;99.90;;;;;;5011761;28;20009;-67
2022/09/11 03:19:12;;;;;;;;;;;15.40;99.90;;;;;;4996800;28;19930;-66
2022/09/11 03:21:39;;;;;;;;;;;15.40;99.90;;;;;;5011703;28;19926;-66
2022/09/11 03:24:08;;;;;;;;;;;15.40;99.90;;;;;;5011829;28;19925;-66
2022/09/11 03:26:36;;;;;;;;;;;15.40;99.90;;;;;;5011578;28;19925;-67
2022/09/11 03:29:03;;;;;;;;;;;15.40;99.90;;;;;;4995092;28;19929;-66
2022/09/11 03:31:31;;;;;;;;;;;15.40;99.90;;;;;;5011379;28;19926;-67
2022/09/11 03:33:58;;;;;;;;;;;15.30;99.90;;;;;;5011825;28;19930;-67
2022/09/11 03:36:25;;;;;;;;;;;15.30;99.90;;;;;;4995018;28;19929;-66
2022/09/11 03:38:54;;;;;;;;;;;15.30;99.90;;;;;;5003259;28;19929;-67
2022/09/11 03:41:22;;;;;;;;;;;15.30;99.90;;;;;;5011444;28;20024;-67
2022/09/11 03:43:49;;;;;;;;;;;15.30;99.90;;;;;;5011418;28;19925;-66
2022/09/11 03:46:16;;;;;;;;;;;15.30;99.90;;;;;;4996283;28;19932;-67
2022/09/11 03:48:44;;;;;;;;;;;15.30;99.90;;;;;;5011640;28;20024;-67
2022/09/11 03:51:11;;;;;;;;;;;15.30;99.90;;;;;;4994464;28;19929;-67
2022/09/11 03:53:39;;;;;;;;;;;15.30;99.90;;;;;;5011254;28;19961;-67
2022/09/11 03:56:05;;;;;;;;;;;15.30;99.90;;;;;;4998836;28;19955;-67
2022/09/11 03:58:42;;;;;;;;;;;15.30;99.90;;;;;;4994535;28;20274;-66
2022/09/11 04:01:11;;;;;;;;;;;15.20;99.90;;;;;;4997921;28;20372;-66
2022/09/11 04:03:39;;;;;;;;;;;15.10;99.90;;;;;;4994843;28;20400;-67
2022/09/11 04:06:08;;;;;;;;;;;15.10;99.90;;;;;;5011435;28;19929;-67
2022/09/11 04:08:36;;;;;;;;;;;15.10;99.90;;;;;;5010957;28;20028;-67
2022/09/11 04:11:04;;;;;;;;;;;15.00;99.90;;;;;;5014031;28;19968;-67
2022/09/11 04:13:33;;;;;;;;;;;15.00;99.90;;;;;;5015541;28;19925;-67
2022/09/11 04:16:05;;;;;;;;;;;15.00;99.90;;;;;;5018848;28;20012;-67
2022/09/11 04:18:35;;;;;;;;;;;15.00;99.90;;;;;;5011132;28;19925;-67
2022/09/11 04:21:03;;;;;;;;;;;15.00;99.90;;;;;;5011359;28;19925;-67
2022/09/11 04:23:30;;;;;;;;;;;15.00;99.90;;;;;;5000678;28;20032;-67
2022/09/11 04:25:57;;;;;;;;;;;15.00;99.90;;;;;;4997107;28;19953;-67
2022/09/11 04:28:24;;;;;;;;;;;15.00;99.90;;;;;;4995885;28;19926;-67
2022/09/11 04:30:51;;;;;;;;;;;15.00;99.90;;;;;;4995094;28;19925;-67
2022/09/11 04:33:20;;;;;;;;;;;15.10;99.90;;;;;;4995372;28;20313;-67
2022/09/11 04:35:47;;;;;;;;;;;15.00;99.90;;;;;;4995256;28;19932;-67
2022/09/11 04:38:14;;;;;;;;;;;15.00;99.90;;;;;;4995159;28;19926;-67
2022/09/11 04:40:42;;;;;;;;;;;15.00;99.90;;;;;;4994937;28;19925;-66
2022/09/11 04:43:10;;;;;;;;;;;15.00;99.90;;;;;;5011827;28;19929;-67
2022/09/11 04:45:39;;;;;;;;;;;15.00;99.90;;;;;;4999497;28;19925;-67
2022/09/11 04:48:06;;;;;;;;;;;15.00;99.90;;;;;;5011798;28;19933;-65
2022/09/11 04:50:34;;;;;;;;;;;15.00;99.90;;;;;;4995154;28;19933;-76
2022/09/11 04:53:13;;;;;;;;;;;14.90;99.90;;;;;;5011600;28;19932;-67
2022/09/11 04:55:41;;;;;;;;;;;15.00;99.90;;;;;;4995307;28;19925;-67
2022/09/11 04:58:08;;;;;;;;;;;14.90;99.90;;;;;;5001737;28;19960;-68
2022/09/11 05:00:38;;;;;;;;;;;14.90;99.90;;;;;;5009943;28;20387;-71
2022/09/11 05:03:04;;;;;;;;;;;14.90;99.90;;;;;;4995495;28;19926;-70
2022/09/11 05:05:32;;;;;;;;;;;14.90;99.90;;;;;;5011388;28;19929;-69
2022/09/11 05:08:00;;;;;;;;;;;14.90;99.90;;;;;;5016108;28;20111;-67
2022/09/11 05:10:27;;;;;;;;;;;14.90;99.90;;;;;;5011147;28;19932;-69
2022/09/11 05:12:55;;;;;;;;;;;14.90;99.90;;;;;;5016549;28;20424;-69
2022/09/11 05:15:21;;;;;;;;;;;14.90;99.90;;;;;;5020087;28;20020;-67
2022/09/11 05:17:49;;;;;;;;;;;15.00;99.90;;;;;;5024689;28;19925;-67
2022/09/11 05:20:18;;;;;;;;;;;15.00;99.90;;;;;;5007546;28;20017;-68
2022/09/11 05:22:45;;;;;;;;;;;15.00;99.90;;;;;;5010973;28;19933;-66
2022/09/11 05:25:14;;;;;;;;;;;15.00;99.90;;;;;;5014658;28;20401;-66
2022/09/11 05:27:41;;;;;;;;;;;15.00;99.90;;;;;;5010887;28;19926;-72
2022/09/11 05:30:08;;;;;;;;;;;15.00;99.90;;;;;;5019058;28;19925;-66
2022/09/11 05:32:35;;;;;;;;;;;15.00;99.90;;;;;;5018517;28;19925;-66
2022/09/11 05:35:02;;;;;;;;;;;15.00;99.90;;;;;;5018565;28;20350;-66
2022/09/11 05:37:29;;;;;;;;;;;14.90;99.90;;;;;;5012996;28;19937;-66
2022/09/11 05:39:56;;;;;;;;;;;14.90;99.90;;;;;;4987600;28;19975;-66
2022/09/11 05:42:27;;;;;;;;;;;15.00;99.90;;;;;;5013821;28;19926;-66
2022/09/11 05:44:54;;;;;;;;;;;14.90;99.90;;;;;;5009008;28;19925;-66
2022/09/11 05:47:22;;;;;;;;;;;14.90;99.90;;;;;;5016982;28;20415;-66
2022/09/11 05:49:53;;;;;;;;;;;14.90;99.90;;;;;;5010001;28;19972;-66
2022/09/11 05:52:20;;;;;;;;;;;14.90;99.90;;;;;;5023034;28;19960;-67
2022/09/11 05:54:47;;;;;;;;;;;14.90;99.90;;;;;;5023599;28;20024;-68
2022/09/11 05:57:14;;;;;;;;;;;14.90;99.90;;;;;;5020221;28;19925;-68
2022/09/11 05:59:43;;;;;;;;;;;15.00;99.90;;;;;;4998154;28;19948;-69
2022/09/11 06:02:10;;;;;;;;;;;15.00;99.90;;;;;;5001932;28;19926;-68
2022/09/11 06:04:44;;;;;;;;;;;15.00;99.90;;;;;;5016271;28;20270;-67
2022/09/11 06:07:12;;;;;;;;;;;15.00;99.90;;;;;;5015000;28;19925;-67
2022/09/11 06:09:41;;;;;;;;;;;15.00;99.90;;;;;;5021618;28;19932;-67
2022/09/11 06:12:11;;;;;;;;;;;15.00;99.90;;;;;;5020176;28;19925;-67
2022/09/11 06:14:38;;;;;;;;;;;15.00;99.90;;;;;;5020018;28;19925;-67
2022/09/11 06:17:07;;;;;;;;;;;15.00;99.90;;;;;;5022078;28;19929;-67
2022/09/11 06:19:34;;;;;;;;;;;15.00;99.90;;;;;;5013383;28;19925;-67
2022/09/11 06:22:01;;;;;;;;;;;15.10;99.90;;;;;;5024173;28;19926;-67
2022/09/11 06:24:33;;;;;;;;;;;15.10;99.90;;;;;;5012263;28;19948;-67
2022/09/11 06:26:59;;;;;;;;;;;15.20;99.90;;;;;;4997440;28;19968;-67
2022/09/11 06:29:31;;;;;;;;;;;15.30;99.90;;;;;;4997519;28;19925;-67
2022/09/11 06:31:59;;;;;;;;;;;15.40;99.90;;;;;;4999709;28;19932;-67
2022/09/11 06:34:30;;;;;;;;;;;15.40;99.90;;;;;;4999914;28;19925;-66
2022/09/11 06:37:00;;;;;;;;;;;15.40;99.90;;;;;;5009104;28;19929;-67
2022/09/11 06:39:27;;;;;;;;;;;15.40;99.90;;;;;;5025609;28;19969;-67
2022/09/11 06:41:54;;;;;;;;;;;15.50;99.90;;;;;;5014793;28;19932;-68
2022/09/11 06:44:27;;;;;;;;;;;15.50;99.90;;;;;;5014715;28;20404;-67
2022/09/11 06:46:58;;;;;;;;;;;15.60;99.90;;;;;;5020185;28;19932;-67
2022/09/11 06:49:25;;;;;;;;;;;15.70;99.90;;;;;;5025013;28;19926;-67
2022/09/11 06:52:12;;;;;;;;;;;15.70;99.90;;;;;;5009843;28;20404;-67
2022/09/11 06:54:44;;;;;;;;;;;15.70;99.90;;;;;;5014313;28;20333;-67
2022/09/11 06:57:14;;;;;;;;;;;15.70;99.90;;;;;;5026259;28;20016;-67
2022/09/11 06:59:42;;;;;;;;;;;15.80;99.90;;;;;;4995933;28;20348;-67
2022/09/11 07:02:09;;;;;;;;;;;15.80;99.90;;;;;;5013477;28;20030;-67
2022/09/11 07:04:36;;;;;;;;;;;15.90;99.90;;;;;;5018654;28;19925;-67
2022/09/11 07:07:04;;;;;;;;;;;16.00;99.90;;;;;;4996231;28;19929;-67
2022/09/11 07:09:33;;;;;;;;;;;16.10;99.90;;;;;;5011750;28;20373;-67
2022/09/11 07:11:59;;;;;;;;;;;16.10;99.90;;;;;;4995463;28;19932;-67
2022/09/11 07:14:27;;;;;;;;;;;16.20;99.90;;;;;;5011927;28;19933;-67
2022/09/11 07:17:03;;;;;;;;;;;16.30;99.90;;;;;;4995913;28;19929;-67
2022/09/11 07:19:32;;;;;;;;;;;16.40;99.90;;;;;;5011243;28;20367;-67
2022/09/11 07:21:59;;;;;;;;;;;16.40;99.90;;;;;;4995680;28;19926;-67
2022/09/11 07:24:27;;;;;;;;;;;16.40;99.90;;;;;;5012456;28;20413;-67
2022/09/11 07:26:56;;;;;;;;;;;16.30;99.90;;;;;;5011299;28;20352;-67
2022/09/11 07:29:30;;;;;;;;;;;16.30;99.90;;;;;;5011497;28;20016;-67
2022/09/11 07:31:57;;;;;;;;;;;16.20;99.90;;;;;;4995098;28;20301;-67
2022/09/11 07:34:26;;;;;;;;;;;16.20;99.90;;;;;;5012087;28;20003;-67
2022/09/11 07:36:52;;;;;;;;;;;16.30;99.90;;;;;;4992065;28;19926;-67
2022/09/11 07:39:23;;;;;;;;;;;16.20;99.90;;;;;;5011116;28;19929;-67
2022/09/11 07:41:57;;;;;;;;;;;16.30;99.90;;;;;;4997361;28;19953;-67
2022/09/11 07:44:28;;;;;;;;;;;16.40;99.90;;;;;;5011740;28;19942;-67
2022/09/11 07:46:56;;;;;;;;;;;16.60;99.90;;;;;;5011475;28;20392;-67
2022/09/11 07:49:25;;;;;;;;;;;16.60;99.90;;;;;;5011177;28;20012;-67
2022/09/11 07:51:53;;;;;;;;;;;16.70;99.90;;;;;;5004567;28;19937;-67
2022/09/11 07:54:27;;;;;;;;;;;16.80;99.90;;;;;;5011154;28;19932;-67
2022/09/11 07:56:54;;;;;;;;;;;16.90;99.90;;;;;;4994886;28;19999;-68
2022/09/11 07:59:23;;;;;;;;;;;17.10;99.90;;;;;;5010951;28;19929;-67
2022/09/11 08:01:52;;;;;;;;;;;17.20;99.90;;;;;;5011649;28;19925;-66
2022/09/11 08:04:20;;;;;;;;;;;17.20;99.90;;;;;;4994666;28;19929;-67
2022/09/11 08:06:47;;;;;;;;;;;17.20;99.90;;;;;;5010826;28;19933;-67
2022/09/11 08:09:20;;;;;;;;;;;17.20;99.90;;;;;;4993933;28;19930;-67
2022/09/11 08:11:57;;;;;;;;;;;17.30;99.90;;;;;;5010800;28;19926;-67
2022/09/11 08:14:26;;;;;;;;;;;17.40;99.90;;;;;;4994498;28;19979;-67
2022/09/11 08:16:55;;;;;;;;;;;17.30;99.90;;;;;;5003634;28;19926;-67
2022/09/11 08:19:25;;;;;;;;;;;17.30;99.90;;;;;;5010234;28;19972;-67
2022/09/11 08:21:57;;;;;;;;;;;17.40;99.90;;;;;;5011897;28;19933;-67
2022/09/11 08:24:26;;;;;;;;;;;17.40;99.90;;;;;;5010052;28;20016;-67
2022/09/11 08:26:56;;;;;;;;;;;17.50;99.90;;;;;;5006696;28;19926;-67
2022/09/11 08:29:26;;;;;;;;;;;17.50;99.90;;;;;;5010067;28;19926;-67
2022/09/11 08:31:54;;;;;;;;;;;17.70;99.90;;;;;;5010515;28;19936;-67
2022/09/11 08:34:22;;;;;;;;;;;17.80;99.90;;;;;;5011628;28;19976;-67
2022/09/11 08:36:51;;;;;;;;;;;17.90;99.90;;;;;;5010995;28;19926;-67
2022/09/11 08:39:19;;;;;;;;;;;18.10;99.90;;;;;;5010095;28;19931;-67
2022/09/11 08:41:52;;;;;;;;;;;18.10;99.90;;;;;;4994166;28;20389;-67
2022/09/11 08:44:23;;;;;;;;;;;18.20;99.90;;;;;;5010591;28;19930;-67
2022/09/11 08:46:55;;;;;;;;;;;18.40;99.90;;;;;;5010649;28;19925;-67
2022/09/11 08:49:24;;;;;;;;;;;18.60;99.90;;;;;;5015421;28;20344;-67
2022/09/11 08:51:53;;;;;;;;;;;18.60;99.90;;;;;;5003380;28;20024;-67
2022/09/11 08:54:27;;;;;;;;;;;18.60;99.90;;;;;;4995694;28;20468;-67
2022/09/11 08:57:04;;;;;;;;;;;18.50;99.90;;;;;;5010234;28;19925;-67
2022/09/11 08:59:37;;;;;;;;;;;18.60;99.90;;;;;;4992924;28;19925;-68
2022/09/11 09:02:14;;;;;;;;;;;18.60;99.90;;;;;;5010053;28;19968;-67
2022/09/11 09:04:49;;;;;;;;;;;18.70;99.90;;;;;;4995890;28;19925;-67
2022/09/11 09:07:21;;;;;;;;;;;18.70;99.90;;;;;;4993718;28;20005;-67
2022/09/11 09:09:54;;;;;;;;;;;18.70;99.90;;;;;;5008823;28;19979;-67
2022/09/11 09:12:27;;;;;;;;;;;18.80;99.90;;;;;;4993883;28;19930;-66
2022/09/11 09:15:03;;;;;;;;;;;18.80;99.90;;;;;;5010920;28;19933;-67
2022/09/11 09:17:35;;;;;;;;;;;18.70;99.90;;;;;;4994090;28;19925;-67
2022/09/11 09:20:05;;;;;;;;;;;18.80;99.90;;;;;;5010659;28;20408;-67
2022/09/11 09:22:38;;;;;;;;;;;18.90;99.90;;;;;;5010794;28;19926;-67
2022/09/11 09:25:06;;;;;;;;;;;19.20;99.90;;;;;;5006471;28;19930;-73
2022/09/11 09:27:34;;;;;;;;;;;19.40;99.90;;;;;;5010764;28;19926;-67
2022/09/11 09:30:02;;;;;;;;;;;19.70;99.90;;;;;;4993784;28;19984;-67
2022/09/11 09:32:31;;;;;;;;;;;19.90;99.90;;;;;;5010557;28;19960;-67
2022/09/11 09:35:02;;;;;;;;;;;20.20;99.90;;;;;;4995286;28;19926;-67
2022/09/11 09:37:29;;;;;;;;;;;20.30;99.90;;;;;;5047999;22;19925;-64
2022/09/11 09:39:59;;;;;;;;;;;20.10;99.90;;;;;;5028720;28;19932;-64
2022/09/11 09:42:35;;;;;;;;;;;20.10;99.90;;;;;;5031275;28;19924;-66
2022/09/11 09:45:13;;;;;;;;;;;20.20;99.90;;;;;;5032462;28;19960;-65
2022/09/11 09:47:43;;;;;;;;;;;20.30;99.90;;;;;;5032582;28;19975;-65
2022/09/11 09:50:16;;;;;;;;;;;20.50;99.90;;;;;;5033521;28;19966;-65
2022/09/11 09:52:43;;;;;;;;;;;20.80;99.90;;;;;;5033721;28;19994;-67
2022/09/11 09:55:14;;;;;;;;;;;20.80;99.90;;;;;;5033584;28;20420;-69
2022/09/11 09:57:42;;;;;;;;;;;20.40;99.90;;;;;;5033544;28;19975;-65
2022/09/11 10:00:14;;;;;;;;;;;20.00;99.90;;;;;;5033366;28;19928;-66
2022/09/11 10:02:44;;;;;;;;;;;19.80;99.90;;;;;;5027292;28;19925;-65
2022/09/11 10:05:17;;;;;;;;;;;19.50;99.90;;;;;;5034834;28;19964;-65
2022/09/11 10:07:48;;;;;;;;;;;19.60;99.90;;;;;;5034176;28;19925;-66
2022/09/11 10:10:23;;;;;;;;;;;19.70;99.90;;;;;;5034043;28;19924;-65
2022/09/11 10:12:51;;;;;;;;;;;19.80;99.90;;;;;;5055329;28;19925;-65
2022/09/11 10:15:21;;;;;;;;;;;20.00;99.90;;;;;;5031886;28;19936;-65
2022/09/11 10:17:48;;;;;;;;;;;20.00;99.90;;;;;;5022769;28;19935;-66
2022/09/11 10:20:22;;;;;;;;;;;20.10;99.90;;;;;;5031851;28;19929;-67
2022/09/11 10:22:49;;;;;;;;;;;20.20;99.90;;;;;;5045144;28;19935;-68
2022/09/11 10:25:18;;;;;;;;;;;20.60;99.90;;;;;;5032658;28;19951;-66
2022/09/11 10:27:46;;;;;;;;;;;20.90;99.90;;;;;;5024978;28;19949;-66
2022/09/11 10:30:27;;;;;;;;;;;21.10;99.90;;;;;;5035441;28;19928;-65
2022/09/11 10:32:54;;;;;;;;;;;21.30;99.90;;;;;;5046651;28;19924;-65
2022/09/11 10:35:24;;;;;;;;;;;21.20;99.90;;;;;;5035337;28;20380;-65
2022/09/11 10:37:59;;;;;;;;;;;21.40;99.90;;;;;;5035495;28;19979;-66
2022/09/11 10:40:26;;;;;;;;;;;21.30;99.90;;;;;;5035280;28;19925;-65
2022/09/11 10:42:53;;;;;;;;;;;21.10;99.90;;;;;;5034774;28;19932;-66
2022/09/11 10:45:21;;;;;;;;;;;21.50;99.90;;;;;;5035320;28;19925;-66
2022/09/11 10:47:48;;;;;;;;;;;22.00;99.90;;;;;;5035179;28;19924;-66
2022/09/11 10:50:19;;;;;;;;;;;22.10;99.90;;;;;;5035309;28;19931;-67
2022/09/11 10:52:49;;;;;;;;;;;22.30;99.90;;;;;;5035304;28;19925;-66
2022/09/11 10:55:17;;;;;;;;;;;22.40;99.90;;;;;;5033775;28;19925;-66
2022/09/11 10:57:45;;;;;;;;;;;22.60;99.90;;;;;;5033722;28;19924;-67
2022/09/11 11:00:15;;;;;;;;;;;22.80;99.90;;;;;;5035152;28;19928;-66
2022/09/11 11:02:43;;;;;;;;;;;23.10;99.90;;;;;;5035089;28;19996;-66
2022/09/11 11:05:17;;;;;;;;;;;23.10;99.90;;;;;;5035129;28;20012;-68
2022/09/11 11:07:57;;;;;;;;;;;23.40;99.90;;;;;;5035103;28;19972;-67
2022/09/11 11:10:31;;;;;;;;;;;23.70;99.90;;;;;;5034280;28;19925;-66
2022/09/11 11:13:06;;;;;;;;;;;23.70;99.90;;;;;;5047934;28;19932;-68
2022/09/11 11:15:39;;;;;;;;;;;24.30;99.90;;;;;;5034543;28;19925;-65
2022/09/11 11:18:15;;;;;;;;;;;24.60;99.90;;;;;;5046817;28;19936;-65
2022/09/11 11:20:45;;;;;;;;;;;24.70;99.90;;;;;;5033152;28;19924;-66
2022/09/11 11:23:18;;;;;;;;;;;24.50;99.90;;;;;;5051460;28;19933;-67
2022/09/11 11:25:50;;;;;;;;;;;27.70;99.90;;;;;;5033566;28;19925;-65
2022/09/11 11:28:23;;;;;;;;;;;31.00;99.90;;;;;;5034033;28;19933;-65
2022/09/11 11:30:55;;;;;;;;;;;28.40;99.90;;;;;;5049927;28;19925;-67
2022/09/11 11:33:28;;;;;;;;;;;26.60;99.90;;;;;;5045509;28;19925;-67
2022/09/11 11:36:01;;;;;;;;;;;25.20;99.90;;;;;;5046040;28;19964;-65
2022/09/11 11:38:34;;;;;;;;;;;25.20;99.90;;;;;;5048721;28;19925;-65
2022/09/11 11:41:06;;;;;;;;;;;27.60;99.90;;;;;;5030855;28;19924;-65
2022/09/11 11:43:34;;;;;;;;;;;30.70;99.90;;;;;;5049989;28;19925;-65
2022/09/11 11:46:03;;;;;;;;;;;32.90;99.90;;;;;;5034125;28;19924;-67
2022/09/11 11:48:34;;;;;;;;;;;34.20;99.90;;;;;;5034162;28;19929;-66
2022/09/11 11:51:02;;;;;;;;;;;34.80;99.90;;;;;;5044106;28;19948;-66
2022/09/11 11:53:32;;;;;;;;;;;34.10;99.90;;;;;;5034199;28;19925;-72
2022/09/11 11:56:05;;;;;;;;;;;32.90;99.90;;;;;;5029977;28;19928;-68
2022/09/11 11:58:41;;;;;;;;;;;32.80;99.90;;;;;;5033763;28;19936;-66
2022/09/11 12:01:12;;;;;;;;;;;34.10;99.90;;;;;;5028443;28;20312;-66
2022/09/11 12:03:43;;;;;;;;;;;35.90;99.90;;;;;;5033960;28;19925;-67
2022/09/11 12:06:10;;;;;;;;;;;37.30;99.90;;;;;;5034087;28;19929;-67
2022/09/11 12:08:42;;;;;;;;;;;36.40;99.90;;;;;;5033741;28;20442;-66
2022/09/11 12:11:09;;;;;;;;;;;35.10;99.90;;;;;;5031136;28;19932;-66
2022/09/11 12:13:41;;;;;;;;;;;36.70;99.90;;;;;;5033935;28;19925;-68
2022/09/11 12:16:15;;;;;;;;;;;37.50;99.90;;;;;;5029945;28;19940;-66
2022/09/11 12:18:42;;;;;;;;;;;35.60;99.90;;;;;;5033571;28;20047;-66
2022/09/11 12:21:30;;;;;;;;;;;32.80;99.90;;;;;;5034318;28;19932;-66
2022/09/11 12:24:12;;;;;;;;;;;32.10;99.90;;;;;;5033125;28;19925;-67
2022/09/11 12:26:39;;;;;;;;;;;34.90;99.90;;;;;;5033371;28;19928;-67
2022/09/11 12:29:39;;;;;;;;;;;36.30;99.90;;;;;;5034474;28;19929;-66
2022/09/11 12:32:19;;;;;;;;;;;36.70;99.90;;;;;;5032651;28;20439;-67
2022/09/11 12:34:57;;;;;;;;;;;36.80;99.90;;;;;;5033346;28;20017;-67
2022/09/11 12:37:26;;;;;;;;;;;36.70;99.90;;;;;;5029979;28;19925;-66
2022/09/11 12:40:00;;;;;;;;;;;38.20;99.90;;;;;;5026063;28;20385;-66
2022/09/11 12:42:46;;;;;;;;;;;36.30;99.90;;;;;;5031012;28;19929;-67
2022/09/11 12:45:28;;;;;;;;;;;35.80;99.90;;;;;;5046646;28;19925;-67
2022/09/11 12:48:01;;;;;;;;;;;36.90;99.90;;;;;;5034202;28;19932;-66
2022/09/11 12:50:28;;;;;;;;;;;37.40;99.90;;;;;;5034025;28;19932;-66
2022/09/11 12:53:00;;;;;;;;;;;36.40;99.90;;;;;;5033389;28;19925;-67
2022/09/11 12:55:33;;;;;;;;;;;35.90;99.90;;;;;;5033759;28;19925;-66
2022/09/11 12:58:02;;;;;;;;;;;34.70;99.90;;;;;;5033286;28;19936;-67
2022/09/11 13:00:38;;;;;;;;;;;33.80;99.90;;;;;;5032583;28;19924;-67
2022/09/11 13:03:07;;;;;;;;;;;34.10;99.90;;;;;;5032814;28;19932;-67
2022/09/11 13:05:36;;;;;;;;;;;34.90;99.90;;;;;;5032994;28;20320;-69
2022/09/11 13:08:05;;;;;;;;;;;35.20;99.90;;;;;;5033300;28;19940;-68
2022/09/11 13:10:35;;;;;;;;;;;35.50;99.90;;;;;;5032483;28;19925;-67
2022/09/11 13:13:27;;;;;;;;;;;35.40;99.90;;;;;;5022706;28;20404;-67
2022/09/11 13:15:57;;;;;;;;;;;34.80;99.90;;;;;;5032772;28;19924;-68
2022/09/11 13:18:25;;;;;;;;;;;34.90;99.90;;;;;;5032878;28;19925;-66
2022/09/11 13:20:59;;;;;;;;;;;34.80;99.90;;;;;;5043499;28;19933;-68
2022/09/11 13:23:26;;;;;;;;;;;34.80;99.90;;;;;;5026014;28;19929;-67
2022/09/11 13:25:54;;;;;;;;;;;34.70;99.90;;;;;;5043094;28;19929;-64
2022/09/11 13:28:21;;;;;;;;;;;35.20;99.90;;;;;;5032594;28;19929;-67
2022/09/11 13:30:53;;;;;;;;;;;35.10;99.90;;;;;;5032514;28;19933;-78
2022/09/11 13:33:26;;;;;;;;;;;35.50;99.90;;;;;;5032716;28;20388;-67
2022/09/11 13:35:53;;;;;;;;;;;35.40;99.90;;;;;;5041856;28;19928;-67
2022/09/11 13:38:22;;;;;;;;;;;35.80;99.90;;;;;;5032525;28;19929;-67
2022/09/11 13:40:50;;;;;;;;;;;35.70;99.90;;;;;;5048877;28;19924;-66
2022/09/11 13:43:19;;;;;;;;;;;35.50;99.90;;;;;;5030408;28;20458;-66
2022/09/11 13:45:46;;;;;;;;;;;35.30;99.90;;;;;;5049683;28;20457;-67
2022/09/11 13:48:19;;;;;;;;;;;35.60;99.90;;;;;;5028054;28;19964;-66
2022/09/11 13:50:48;;;;;;;;;;;35.50;99.90;;;;;;5032339;28;19925;-69
2022/09/11 13:53:15;;;;;;;;;;;35.60;99.90;;;;;;5031086;28;19931;-67
2022/09/11 13:55:45;;;;;;;;;;;35.90;99.90;;;;;;5026681;28;19925;-67
2022/09/11 13:58:22;;;;;;;;;;;35.20;99.90;;;;;;5030795;28;19932;-66
2022/09/11 14:00:50;;;;;;;;;;;35.10;99.90;;;;;;5046331;28;19975;-68
2022/09/11 14:03:20;;;;;;;;;;;35.00;99.90;;;;;;5033038;28;19925;-67
2022/09/11 14:05:53;;;;;;;;;;;35.10;99.90;;;;;;5036626;28;19937;-68
2022/09/11 14:08:26;;;;;;;;;;;35.20;99.90;;;;;;5032312;28;20016;-66
2022/09/11 14:10:55;;;;;;;;;;;35.70;99.90;;;;;;5032313;28;19929;-67
2022/09/11 14:13:26;;;;;;;;;;;35.60;99.90;;;;;;5036354;28;19928;-67
2022/09/11 14:15:54;;;;;;;;;;;34.80;99.90;;;;;;5052271;28;20022;-64
2022/09/11 14:18:23;;;;;;;;;;;34.60;99.90;;;;;;5036339;28;19932;-67
2022/09/11 14:20:52;;;;;;;;;;;34.50;99.90;;;;;;5035615;28;19925;-66
2022/09/11 14:23:23;;;;;;;;;;;34.20;99.90;;;;;;5035924;28;20020;-67
2022/09/11 14:26:02;;;;;;;;;;;34.20;99.90;;;;;;5035515;28;19925;-68
2022/09/11 14:28:34;;;;;;;;;;;34.00;99.90;;;;;;5050065;28;20292;-66
2022/09/11 14:31:07;;;;;;;;;;;34.20;99.90;;;;;;5035468;28;19924;-67
2022/09/11 14:33:34;;;;;;;;;;;34.30;99.90;;;;;;5035832;28;19925;-67